sensor_id;sensor_type;location;lat;lon;timestamp;P1;durP1;ratioP1;P2;durP2;ratioP2
7545;SDS011;3814;51.454;12.616;2022-08-20T00:00:22;39.03;;;20.02;;
7545;SDS011;3814;51.454;12.616;2022-08-20T00:03:02;42.58;;;22.48;;
7545;SDS011;3814;51.454;12.616;2022-08-20T00:05:39;37.63;;;19.67;;
7545;SDS011;3814;51.454;12.616;2022-08-20T00:08:07;42.60;;;20.75;;
7545;SDS011;3814;51.454;12.616;2022-08-20T00:10:34;40.20;;;19.98;;
7545;SDS011;3814;51.454;12.616;2022-08-20T00:13:01;41.13;;;20.02;;
7545;SDS011;3814;51.454;12.616;2022-08-20T00:15:29;37.53;;;20.23;;
7545;SDS011;3814;51.454;12.616;2022-08-20T00:17:57;40.88;;;20.50;;
7545;SDS011;3814;51.454;12.616;2022-08-20T00:20:23;41.28;;;20.55;;
7545;SDS011;3814;51.454;12.616;2022-08-20T00:22:50;40.35;;;20.50;;
7545;SDS011;3814;51.454;12.616;2022-08-20T00:25:16;41.40;;;20.60;;
7545;SDS011;3814;51.454;12.616;2022-08-20T00:27:41;37.13;;;18.88;;
7545;SDS011;3814;51.454;12.616;2022-08-20T00:30:08;40.85;;;20.25;;
7545;SDS011;3814;51.454;12.616;2022-08-20T00:32:42;39.25;;;19.23;;
7545;SDS011;3814;51.454;12.616;2022-08-20T00:35:07;46.53;;;22.63;;
7545;SDS011;3814;51.454;12.616;2022-08-20T00:37:32;43.88;;;21.30;;
7545;SDS011;3814;51.454;12.616;2022-08-20T00:39:58;46.35;;;21.92;;
7545;SDS011;3814;51.454;12.616;2022-08-20T00:42:23;42.33;;;20.50;;
7545;SDS011;3814;51.454;12.616;2022-08-20T00:44:49;44.35;;;20.33;;
7545;SDS011;3814;51.454;12.616;2022-08-20T00:47:14;40.53;;;20.60;;
7545;SDS011;3814;51.454;12.616;2022-08-20T00:49:39;47.05;;;21.55;;
7545;SDS011;3814;51.454;12.616;2022-08-20T00:52:10;41.47;;;19.83;;
7545;SDS011;3814;51.454;12.616;2022-08-20T00:54:49;42.28;;;20.35;;
7545;SDS011;3814;51.454;12.616;2022-08-20T00:57:27;43.50;;;19.77;;
7545;SDS011;3814;51.454;12.616;2022-08-20T00:59:54;42.83;;;19.77;;
7545;SDS011;3814;51.454;12.616;2022-08-20T01:02:21;42.35;;;19.98;;
7545;SDS011;3814;51.454;12.616;2022-08-20T01:04:49;37.42;;;18.15;;
7545;SDS011;3814;51.454;12.616;2022-08-20T01:07:16;44.60;;;20.33;;
7545;SDS011;3814;51.454;12.616;2022-08-20T01:09:44;44.47;;;20.58;;
7545;SDS011;3814;51.454;12.616;2022-08-20T01:12:09;45.45;;;20.88;;
7545;SDS011;3814;51.454;12.616;2022-08-20T01:14:35;38.78;;;18.98;;
7545;SDS011;3814;51.454;12.616;2022-08-20T01:17:09;41.83;;;20.17;;
7545;SDS011;3814;51.454;12.616;2022-08-20T01:19:43;49.63;;;23.48;;
7545;SDS011;3814;51.454;12.616;2022-08-20T01:22:12;43.50;;;20.35;;
7545;SDS011;3814;51.454;12.616;2022-08-20T01:25:07;41.28;;;20.40;;
7545;SDS011;3814;51.454;12.616;2022-08-20T01:27:37;49.10;;;21.23;;
7545;SDS011;3814;51.454;12.616;2022-08-20T01:30:03;47.53;;;21.25;;
7545;SDS011;3814;51.454;12.616;2022-08-20T01:32:29;46.30;;;21.52;;
7545;SDS011;3814;51.454;12.616;2022-08-20T01:34:55;46.38;;;20.38;;
7545;SDS011;3814;51.454;12.616;2022-08-20T01:37:20;45.38;;;20.20;;
7545;SDS011;3814;51.454;12.616;2022-08-20T01:39:45;44.90;;;20.40;;
7545;SDS011;3814;51.454;12.616;2022-08-20T01:42:13;44.55;;;19.65;;
7545;SDS011;3814;51.454;12.616;2022-08-20T01:44:45;42.75;;;19.63;;
7545;SDS011;3814;51.454;12.616;2022-08-20T01:49:46;42.45;;;18.48;;
7545;SDS011;3814;51.454;12.616;2022-08-20T01:52:14;43.13;;;20.90;;
7545;SDS011;3814;51.454;12.616;2022-08-20T01:54:46;40.30;;;19.15;;
7545;SDS011;3814;51.454;12.616;2022-08-20T01:57:13;41.75;;;19.58;;
7545;SDS011;3814;51.454;12.616;2022-08-20T01:59:40;39.40;;;18.38;;
7545;SDS011;3814;51.454;12.616;2022-08-20T02:02:06;48.80;;;21.60;;
7545;SDS011;3814;51.454;12.616;2022-08-20T02:04:32;45.40;;;21.85;;
7545;SDS011;3814;51.454;12.616;2022-08-20T02:06:59;40.53;;;20.45;;
7545;SDS011;3814;51.454;12.616;2022-08-20T02:09:27;39.47;;;19.52;;
7545;SDS011;3814;51.454;12.616;2022-08-20T02:11:55;41.92;;;19.13;;
7545;SDS011;3814;51.454;12.616;2022-08-20T02:14:21;44.70;;;20.55;;
7545;SDS011;3814;51.454;12.616;2022-08-20T02:16:47;40.53;;;19.77;;
7545;SDS011;3814;51.454;12.616;2022-08-20T02:19:19;39.83;;;18.75;;
7545;SDS011;3814;51.454;12.616;2022-08-20T02:21:49;38.08;;;17.52;;
7545;SDS011;3814;51.454;12.616;2022-08-20T02:24:16;35.67;;;17.17;;
7545;SDS011;3814;51.454;12.616;2022-08-20T02:26:42;40.08;;;17.85;;
7545;SDS011;3814;51.454;12.616;2022-08-20T02:29:08;40.63;;;19.17;;
7545;SDS011;3814;51.454;12.616;2022-08-20T02:31:35;41.45;;;19.08;;
7545;SDS011;3814;51.454;12.616;2022-08-20T02:34:02;35.67;;;17.30;;
7545;SDS011;3814;51.454;12.616;2022-08-20T02:36:29;37.33;;;17.80;;
7545;SDS011;3814;51.454;12.616;2022-08-20T02:38:54;38.38;;;17.92;;
7545;SDS011;3814;51.454;12.616;2022-08-20T02:41:19;41.08;;;19.63;;
7545;SDS011;3814;51.454;12.616;2022-08-20T02:43:45;42.05;;;19.65;;
7545;SDS011;3814;51.454;12.616;2022-08-20T02:46:11;38.38;;;18.08;;
7545;SDS011;3814;51.454;12.616;2022-08-20T02:48:38;39.15;;;18.52;;
7545;SDS011;3814;51.454;12.616;2022-08-20T02:51:04;33.42;;;17.98;;
7545;SDS011;3814;51.454;12.616;2022-08-20T02:53:31;36.25;;;17.77;;
7545;SDS011;3814;51.454;12.616;2022-08-20T02:55:58;34.67;;;17.45;;
7545;SDS011;3814;51.454;12.616;2022-08-20T02:58:25;38.28;;;17.88;;
7545;SDS011;3814;51.454;12.616;2022-08-20T03:00:50;39.60;;;18.30;;
7545;SDS011;3814;51.454;12.616;2022-08-20T03:03:16;39.55;;;18.33;;
7545;SDS011;3814;51.454;12.616;2022-08-20T03:05:47;40.40;;;19.10;;
7545;SDS011;3814;51.454;12.616;2022-08-20T03:08:13;40.85;;;18.73;;
7545;SDS011;3814;51.454;12.616;2022-08-20T03:10:39;41.97;;;19.92;;
7545;SDS011;3814;51.454;12.616;2022-08-20T03:13:06;40.95;;;18.92;;
7545;SDS011;3814;51.454;12.616;2022-08-20T03:15:35;47.70;;;20.13;;
7545;SDS011;3814;51.454;12.616;2022-08-20T03:18:00;43.42;;;20.05;;
7545;SDS011;3814;51.454;12.616;2022-08-20T03:20:26;45.10;;;20.15;;
7545;SDS011;3814;51.454;12.616;2022-08-20T03:22:52;42.03;;;20.27;;
7545;SDS011;3814;51.454;12.616;2022-08-20T03:25:17;43.03;;;20.67;;
7545;SDS011;3814;51.454;12.616;2022-08-20T03:27:43;42.55;;;19.92;;
7545;SDS011;3814;51.454;12.616;2022-08-20T03:30:09;39.92;;;19.23;;
7545;SDS011;3814;51.454;12.616;2022-08-20T03:32:36;42.20;;;19.60;;
7545;SDS011;3814;51.454;12.616;2022-08-20T03:35:06;42.63;;;19.40;;
7545;SDS011;3814;51.454;12.616;2022-08-20T03:37:33;44.25;;;20.55;;
7545;SDS011;3814;51.454;12.616;2022-08-20T03:40:00;42.33;;;19.50;;
7545;SDS011;3814;51.454;12.616;2022-08-20T03:42:25;43.85;;;20.48;;
7545;SDS011;3814;51.454;12.616;2022-08-20T03:44:51;47.67;;;20.23;;
7545;SDS011;3814;51.454;12.616;2022-08-20T03:47:17;44.67;;;20.83;;
7545;SDS011;3814;51.454;12.616;2022-08-20T03:49:42;45.95;;;20.73;;
7545;SDS011;3814;51.454;12.616;2022-08-20T03:52:08;46.85;;;21.38;;
7545;SDS011;3814;51.454;12.616;2022-08-20T03:54:33;47.47;;;20.85;;
7545;SDS011;3814;51.454;12.616;2022-08-20T03:56:59;48.38;;;22.98;;
7545;SDS011;3814;51.454;12.616;2022-08-20T03:59:26;46.60;;;22.13;;
7545;SDS011;3814;51.454;12.616;2022-08-20T04:01:51;45.47;;;20.65;;
7545;SDS011;3814;51.454;12.616;2022-08-20T04:04:16;48.10;;;21.92;;
7545;SDS011;3814;51.454;12.616;2022-08-20T04:06:42;49.08;;;21.80;;
7545;SDS011;3814;51.454;12.616;2022-08-20T04:09:08;52.20;;;21.92;;
7545;SDS011;3814;51.454;12.616;2022-08-20T04:11:34;49.50;;;22.73;;
7545;SDS011;3814;51.454;12.616;2022-08-20T04:13:59;48.50;;;21.98;;
7545;SDS011;3814;51.454;12.616;2022-08-20T04:16:24;46.17;;;21.70;;
7545;SDS011;3814;51.454;12.616;2022-08-20T04:18:51;49.22;;;22.55;;
7545;SDS011;3814;51.454;12.616;2022-08-20T04:21:16;50.88;;;22.00;;
7545;SDS011;3814;51.454;12.616;2022-08-20T04:23:42;43.10;;;20.48;;
7545;SDS011;3814;51.454;12.616;2022-08-20T04:26:07;52.63;;;22.50;;
7545;SDS011;3814;51.454;12.616;2022-08-20T04:28:33;44.97;;;21.15;;
7545;SDS011;3814;51.454;12.616;2022-08-20T04:30:59;40.30;;;19.42;;
7545;SDS011;3814;51.454;12.616;2022-08-20T04:33:26;43.22;;;20.10;;
7545;SDS011;3814;51.454;12.616;2022-08-20T04:35:54;43.60;;;20.00;;
7545;SDS011;3814;51.454;12.616;2022-08-20T04:38:24;44.20;;;21.67;;
7545;SDS011;3814;51.454;12.616;2022-08-20T04:40:50;43.65;;;20.02;;
7545;SDS011;3814;51.454;12.616;2022-08-20T04:46:13;42.17;;;20.17;;
7545;SDS011;3814;51.454;12.616;2022-08-20T04:48:38;46.97;;;20.83;;
7545;SDS011;3814;51.454;12.616;2022-08-20T04:51:05;45.63;;;20.83;;
7545;SDS011;3814;51.454;12.616;2022-08-20T04:53:31;41.45;;;19.67;;
7545;SDS011;3814;51.454;12.616;2022-08-20T04:55:57;40.55;;;19.25;;
7545;SDS011;3814;51.454;12.616;2022-08-20T04:58:33;39.53;;;19.48;;
7545;SDS011;3814;51.454;12.616;2022-08-20T05:01:04;49.22;;;21.70;;
7545;SDS011;3814;51.454;12.616;2022-08-20T05:03:31;44.67;;;21.88;;
7545;SDS011;3814;51.454;12.616;2022-08-20T05:05:57;47.53;;;22.00;;
7545;SDS011;3814;51.454;12.616;2022-08-20T05:08:24;47.35;;;23.08;;
7545;SDS011;3814;51.454;12.616;2022-08-20T05:10:50;40.38;;;19.98;;
7545;SDS011;3814;51.454;12.616;2022-08-20T05:13:16;41.38;;;20.13;;
7545;SDS011;3814;51.454;12.616;2022-08-20T05:15:42;42.20;;;19.15;;
7545;SDS011;3814;51.454;12.616;2022-08-20T05:18:09;48.83;;;21.88;;
7545;SDS011;3814;51.454;12.616;2022-08-20T05:20:36;51.25;;;22.85;;
7545;SDS011;3814;51.454;12.616;2022-08-20T05:23:04;51.47;;;23.30;;
7545;SDS011;3814;51.454;12.616;2022-08-20T05:25:30;48.70;;;21.77;;
7545;SDS011;3814;51.454;12.616;2022-08-20T05:28:00;44.75;;;20.95;;
7545;SDS011;3814;51.454;12.616;2022-08-20T05:30:29;44.45;;;19.55;;
7545;SDS011;3814;51.454;12.616;2022-08-20T05:32:57;48.03;;;22.25;;
7545;SDS011;3814;51.454;12.616;2022-08-20T05:35:23;44.00;;;20.98;;
7545;SDS011;3814;51.454;12.616;2022-08-20T05:37:48;44.67;;;20.05;;
7545;SDS011;3814;51.454;12.616;2022-08-20T05:40:14;50.75;;;23.25;;
7545;SDS011;3814;51.454;12.616;2022-08-20T05:42:40;40.40;;;20.23;;
7545;SDS011;3814;51.454;12.616;2022-08-20T05:45:05;44.47;;;20.65;;
7545;SDS011;3814;51.454;12.616;2022-08-20T05:47:31;44.33;;;21.23;;
7545;SDS011;3814;51.454;12.616;2022-08-20T05:49:57;44.30;;;20.83;;
7545;SDS011;3814;51.454;12.616;2022-08-20T05:52:22;46.53;;;20.15;;
7545;SDS011;3814;51.454;12.616;2022-08-20T05:54:47;50.30;;;22.80;;
7545;SDS011;3814;51.454;12.616;2022-08-20T05:57:15;51.97;;;23.90;;
7545;SDS011;3814;51.454;12.616;2022-08-20T05:59:43;55.28;;;24.15;;
7545;SDS011;3814;51.454;12.616;2022-08-20T06:02:08;52.63;;;23.33;;
7545;SDS011;3814;51.454;12.616;2022-08-20T06:04:53;51.75;;;23.23;;
7545;SDS011;3814;51.454;12.616;2022-08-20T06:07:19;51.47;;;23.98;;
7545;SDS011;3814;51.454;12.616;2022-08-20T06:09:44;54.70;;;24.25;;
7545;SDS011;3814;51.454;12.616;2022-08-20T06:12:10;56.15;;;23.75;;
7545;SDS011;3814;51.454;12.616;2022-08-20T06:14:35;52.28;;;23.35;;
7545;SDS011;3814;51.454;12.616;2022-08-20T06:17:01;52.85;;;23.42;;
7545;SDS011;3814;51.454;12.616;2022-08-20T06:19:28;55.33;;;24.27;;
7545;SDS011;3814;51.454;12.616;2022-08-20T06:21:53;57.50;;;26.35;;
7545;SDS011;3814;51.454;12.616;2022-08-20T06:24:20;53.75;;;23.05;;
7545;SDS011;3814;51.454;12.616;2022-08-20T06:26:45;56.58;;;25.60;;
7545;SDS011;3814;51.454;12.616;2022-08-20T06:29:11;53.05;;;23.35;;
7545;SDS011;3814;51.454;12.616;2022-08-20T06:31:36;57.35;;;26.98;;
7545;SDS011;3814;51.454;12.616;2022-08-20T06:34:03;58.90;;;26.15;;
7545;SDS011;3814;51.454;12.616;2022-08-20T06:36:29;56.45;;;24.95;;
7545;SDS011;3814;51.454;12.616;2022-08-20T06:38:54;51.00;;;22.90;;
7545;SDS011;3814;51.454;12.616;2022-08-20T06:41:21;55.60;;;24.92;;
7545;SDS011;3814;51.454;12.616;2022-08-20T06:43:46;54.83;;;23.42;;
7545;SDS011;3814;51.454;12.616;2022-08-20T06:46:12;53.33;;;24.17;;
7545;SDS011;3814;51.454;12.616;2022-08-20T06:48:38;56.10;;;24.27;;
7545;SDS011;3814;51.454;12.616;2022-08-20T06:51:03;56.15;;;24.35;;
7545;SDS011;3814;51.454;12.616;2022-08-20T06:53:30;57.67;;;25.13;;
7545;SDS011;3814;51.454;12.616;2022-08-20T06:55:56;54.78;;;24.05;;
7545;SDS011;3814;51.454;12.616;2022-08-20T06:58:23;52.33;;;23.42;;
7545;SDS011;3814;51.454;12.616;2022-08-20T07:00:48;62.65;;;25.42;;
7545;SDS011;3814;51.454;12.616;2022-08-20T07:03:14;46.78;;;21.35;;
7545;SDS011;3814;51.454;12.616;2022-08-20T07:05:39;56.55;;;24.23;;
7545;SDS011;3814;51.454;12.616;2022-08-20T07:08:07;53.03;;;23.00;;
7545;SDS011;3814;51.454;12.616;2022-08-20T07:10:33;50.40;;;22.67;;
7545;SDS011;3814;51.454;12.616;2022-08-20T07:12:59;47.10;;;22.70;;
7545;SDS011;3814;51.454;12.616;2022-08-20T07:15:24;47.38;;;22.85;;
7545;SDS011;3814;51.454;12.616;2022-08-20T07:17:54;49.63;;;22.33;;
7545;SDS011;3814;51.454;12.616;2022-08-20T07:20:21;48.25;;;22.75;;
7545;SDS011;3814;51.454;12.616;2022-08-20T07:22:46;43.70;;;21.30;;
7545;SDS011;3814;51.454;12.616;2022-08-20T07:25:13;44.58;;;21.42;;
7545;SDS011;3814;51.454;12.616;2022-08-20T07:27:40;50.05;;;23.20;;
7545;SDS011;3814;51.454;12.616;2022-08-20T07:30:07;46.08;;;22.27;;
7545;SDS011;3814;51.454;12.616;2022-08-20T07:32:52;44.80;;;21.45;;
7545;SDS011;3814;51.454;12.616;2022-08-20T07:35:18;43.05;;;21.20;;
7545;SDS011;3814;51.454;12.616;2022-08-20T07:37:44;42.95;;;21.48;;
7545;SDS011;3814;51.454;12.616;2022-08-20T07:40:13;41.65;;;21.20;;
7545;SDS011;3814;51.454;12.616;2022-08-20T07:42:40;45.78;;;22.10;;
7545;SDS011;3814;51.454;12.616;2022-08-20T07:45:06;42.45;;;21.10;;
7545;SDS011;3814;51.454;12.616;2022-08-20T07:47:35;42.67;;;20.77;;
7545;SDS011;3814;51.454;12.616;2022-08-20T07:50:01;37.90;;;20.00;;
7545;SDS011;3814;51.454;12.616;2022-08-20T07:52:26;37.83;;;19.80;;
7545;SDS011;3814;51.454;12.616;2022-08-20T07:54:52;37.28;;;20.38;;
7545;SDS011;3814;51.454;12.616;2022-08-20T07:57:17;36.60;;;18.88;;
7545;SDS011;3814;51.454;12.616;2022-08-20T07:59:42;35.13;;;19.05;;
7545;SDS011;3814;51.454;12.616;2022-08-20T08:02:09;34.78;;;18.25;;
7545;SDS011;3814;51.454;12.616;2022-08-20T08:04:35;38.35;;;20.33;;
7545;SDS011;3814;51.454;12.616;2022-08-20T08:07:01;37.65;;;20.85;;
7545;SDS011;3814;51.454;12.616;2022-08-20T08:09:26;37.42;;;20.92;;
7545;SDS011;3814;51.454;12.616;2022-08-20T08:11:52;41.42;;;20.27;;
7545;SDS011;3814;51.454;12.616;2022-08-20T08:14:22;37.28;;;19.42;;
7545;SDS011;3814;51.454;12.616;2022-08-20T08:16:54;36.78;;;18.63;;
7545;SDS011;3814;51.454;12.616;2022-08-20T08:19:21;38.17;;;19.38;;
7545;SDS011;3814;51.454;12.616;2022-08-20T08:21:46;35.70;;;18.33;;
7545;SDS011;3814;51.454;12.616;2022-08-20T08:24:12;33.20;;;18.88;;
7545;SDS011;3814;51.454;12.616;2022-08-20T08:26:37;36.97;;;18.25;;
7545;SDS011;3814;51.454;12.616;2022-08-20T08:29:03;36.60;;;19.63;;
7545;SDS011;3814;51.454;12.616;2022-08-20T08:33:56;33.43;;;17.67;;
7545;SDS011;3814;51.454;12.616;2022-08-20T08:36:22;31.13;;;17.27;;
7545;SDS011;3814;51.454;12.616;2022-08-20T08:38:50;34.88;;;19.10;;
7545;SDS011;3814;51.454;12.616;2022-08-20T08:41:21;32.70;;;17.10;;
7545;SDS011;3814;51.454;12.616;2022-08-20T08:43:58;30.75;;;17.10;;
7545;SDS011;3814;51.454;12.616;2022-08-20T08:46:30;30.08;;;16.63;;
7545;SDS011;3814;51.454;12.616;2022-08-20T08:48:57;28.48;;;16.33;;
7545;SDS011;3814;51.454;12.616;2022-08-20T08:51:27;31.42;;;16.48;;
7545;SDS011;3814;51.454;12.616;2022-08-20T08:53:54;32.78;;;17.63;;
7545;SDS011;3814;51.454;12.616;2022-08-20T08:56:23;32.53;;;16.00;;
7545;SDS011;3814;51.454;12.616;2022-08-20T09:01:19;35.27;;;18.00;;
7545;SDS011;3814;51.454;12.616;2022-08-20T09:03:48;35.47;;;17.98;;
7545;SDS011;3814;51.454;12.616;2022-08-20T09:06:15;39.03;;;20.10;;
7545;SDS011;3814;51.454;12.616;2022-08-20T09:11:11;36.20;;;18.52;;
7545;SDS011;3814;51.454;12.616;2022-08-20T09:13:37;36.80;;;18.73;;
7545;SDS011;3814;51.454;12.616;2022-08-20T09:16:03;37.63;;;19.20;;
7545;SDS011;3814;51.454;12.616;2022-08-20T09:18:28;39.22;;;19.83;;
7545;SDS011;3814;51.454;12.616;2022-08-20T09:20:53;45.60;;;23.17;;
7545;SDS011;3814;51.454;12.616;2022-08-20T09:23:19;38.95;;;20.38;;
7545;SDS011;3814;51.454;12.616;2022-08-20T09:25:44;40.55;;;20.30;;
7545;SDS011;3814;51.454;12.616;2022-08-20T09:28:09;39.88;;;20.88;;
7545;SDS011;3814;51.454;12.616;2022-08-20T09:30:35;41.05;;;21.30;;
7545;SDS011;3814;51.454;12.616;2022-08-20T09:33:00;46.08;;;21.45;;
7545;SDS011;3814;51.454;12.616;2022-08-20T09:35:26;41.75;;;21.00;;
7545;SDS011;3814;51.454;12.616;2022-08-20T09:37:52;38.17;;;19.92;;
7545;SDS011;3814;51.454;12.616;2022-08-20T09:40:17;41.67;;;21.13;;
7545;SDS011;3814;51.454;12.616;2022-08-20T09:42:43;36.20;;;19.27;;
7545;SDS011;3814;51.454;12.616;2022-08-20T09:45:09;37.45;;;20.15;;
7545;SDS011;3814;51.454;12.616;2022-08-20T09:47:35;41.67;;;20.80;;
7545;SDS011;3814;51.454;12.616;2022-08-20T09:50:00;41.17;;;20.92;;
7545;SDS011;3814;51.454;12.616;2022-08-20T09:52:27;39.17;;;20.42;;
7545;SDS011;3814;51.454;12.616;2022-08-20T09:54:55;40.88;;;20.70;;
7545;SDS011;3814;51.454;12.616;2022-08-20T09:57:22;47.80;;;23.35;;
7545;SDS011;3814;51.454;12.616;2022-08-20T09:59:50;42.72;;;21.08;;
7545;SDS011;3814;51.454;12.616;2022-08-20T10:02:18;45.05;;;21.67;;
7545;SDS011;3814;51.454;12.616;2022-08-20T10:04:43;44.78;;;22.30;;
7545;SDS011;3814;51.454;12.616;2022-08-20T10:07:08;45.30;;;22.17;;
7545;SDS011;3814;51.454;12.616;2022-08-20T10:09:35;41.70;;;20.77;;
7545;SDS011;3814;51.454;12.616;2022-08-20T10:12:01;45.38;;;22.88;;
7545;SDS011;3814;51.454;12.616;2022-08-20T10:14:26;45.42;;;22.30;;
7545;SDS011;3814;51.454;12.616;2022-08-20T10:16:55;43.30;;;22.15;;
7545;SDS011;3814;51.454;12.616;2022-08-20T10:19:21;49.75;;;24.75;;
7545;SDS011;3814;51.454;12.616;2022-08-20T10:21:48;47.80;;;24.52;;
7545;SDS011;3814;51.454;12.616;2022-08-20T10:24:14;47.63;;;23.75;;
7545;SDS011;3814;51.454;12.616;2022-08-20T10:26:40;51.45;;;25.77;;
7545;SDS011;3814;51.454;12.616;2022-08-20T10:29:05;46.60;;;23.30;;
7545;SDS011;3814;51.454;12.616;2022-08-20T10:31:30;46.80;;;24.33;;
7545;SDS011;3814;51.454;12.616;2022-08-20T10:33:56;47.58;;;24.70;;
7545;SDS011;3814;51.454;12.616;2022-08-20T10:36:21;51.53;;;24.58;;
7545;SDS011;3814;51.454;12.616;2022-08-20T10:38:47;47.17;;;23.40;;
7545;SDS011;3814;51.454;12.616;2022-08-20T10:41:13;49.00;;;24.15;;
7545;SDS011;3814;51.454;12.616;2022-08-20T10:43:38;51.70;;;24.70;;
7545;SDS011;3814;51.454;12.616;2022-08-20T10:46:05;48.75;;;23.98;;
7545;SDS011;3814;51.454;12.616;2022-08-20T10:48:30;49.80;;;25.05;;
7545;SDS011;3814;51.454;12.616;2022-08-20T10:50:56;54.20;;;26.88;;
7545;SDS011;3814;51.454;12.616;2022-08-20T10:53:21;55.33;;;26.30;;
7545;SDS011;3814;51.454;12.616;2022-08-20T10:55:47;55.38;;;27.35;;
7545;SDS011;3814;51.454;12.616;2022-08-20T10:58:12;50.05;;;25.70;;
7545;SDS011;3814;51.454;12.616;2022-08-20T11:00:38;48.70;;;25.40;;
7545;SDS011;3814;51.454;12.616;2022-08-20T11:03:04;58.50;;;27.80;;
7545;SDS011;3814;51.454;12.616;2022-08-20T11:05:29;51.97;;;25.35;;
7545;SDS011;3814;51.454;12.616;2022-08-20T11:07:54;55.90;;;27.52;;
7545;SDS011;3814;51.454;12.616;2022-08-20T11:10:20;52.17;;;24.98;;
7545;SDS011;3814;51.454;12.616;2022-08-20T11:12:46;56.22;;;26.85;;
7545;SDS011;3814;51.454;12.616;2022-08-20T11:15:12;56.08;;;27.85;;
7545;SDS011;3814;51.454;12.616;2022-08-20T11:17:38;51.70;;;25.52;;
7545;SDS011;3814;51.454;12.616;2022-08-20T11:20:05;53.97;;;26.23;;
7545;SDS011;3814;51.454;12.616;2022-08-20T11:22:32;52.95;;;25.55;;
7545;SDS011;3814;51.454;12.616;2022-08-20T11:24:57;57.50;;;26.55;;
7545;SDS011;3814;51.454;12.616;2022-08-20T11:27:42;49.08;;;24.98;;
7545;SDS011;3814;51.454;12.616;2022-08-20T11:30:10;53.25;;;26.05;;
7545;SDS011;3814;51.454;12.616;2022-08-20T11:32:38;57.33;;;27.25;;
7545;SDS011;3814;51.454;12.616;2022-08-20T11:35:03;56.78;;;28.77;;
7545;SDS011;3814;51.454;12.616;2022-08-20T11:37:29;56.72;;;26.90;;
7545;SDS011;3814;51.454;12.616;2022-08-20T11:39:54;52.00;;;26.02;;
7545;SDS011;3814;51.454;12.616;2022-08-20T11:42:19;54.83;;;27.52;;
7545;SDS011;3814;51.454;12.616;2022-08-20T11:44:44;51.10;;;25.77;;
7545;SDS011;3814;51.454;12.616;2022-08-20T11:47:18;49.33;;;25.70;;
7545;SDS011;3814;51.454;12.616;2022-08-20T11:49:54;61.17;;;29.10;;
7545;SDS011;3814;51.454;12.616;2022-08-20T11:52:20;53.53;;;26.27;;
7545;SDS011;3814;51.454;12.616;2022-08-20T11:54:45;56.20;;;26.85;;
7545;SDS011;3814;51.454;12.616;2022-08-20T11:57:11;54.22;;;27.20;;
7545;SDS011;3814;51.454;12.616;2022-08-20T11:59:36;53.97;;;26.92;;
7545;SDS011;3814;51.454;12.616;2022-08-20T12:02:02;50.33;;;26.48;;
7545;SDS011;3814;51.454;12.616;2022-08-20T12:04:27;55.35;;;27.83;;
7545;SDS011;3814;51.454;12.616;2022-08-20T12:06:52;49.00;;;25.52;;
7545;SDS011;3814;51.454;12.616;2022-08-20T12:09:18;54.38;;;27.30;;
7545;SDS011;3814;51.454;12.616;2022-08-20T12:11:43;50.83;;;26.17;;
7545;SDS011;3814;51.454;12.616;2022-08-20T12:14:10;55.80;;;26.85;;
7545;SDS011;3814;51.454;12.616;2022-08-20T12:16:35;56.38;;;26.38;;
7545;SDS011;3814;51.454;12.616;2022-08-20T12:19:00;56.40;;;27.55;;
7545;SDS011;3814;51.454;12.616;2022-08-20T12:21:26;55.63;;;27.67;;
7545;SDS011;3814;51.454;12.616;2022-08-20T12:23:51;55.13;;;28.85;;
7545;SDS011;3814;51.454;12.616;2022-08-20T12:26:16;53.53;;;26.80;;
7545;SDS011;3814;51.454;12.616;2022-08-20T12:28:42;51.33;;;26.52;;
7545;SDS011;3814;51.454;12.616;2022-08-20T12:31:07;48.25;;;25.70;;
7545;SDS011;3814;51.454;12.616;2022-08-20T12:33:32;47.10;;;24.42;;
7545;SDS011;3814;51.454;12.616;2022-08-20T12:35:58;43.88;;;23.25;;
7545;SDS011;3814;51.454;12.616;2022-08-20T12:38:23;38.72;;;22.08;;
7545;SDS011;3814;51.454;12.616;2022-08-20T12:40:48;37.40;;;20.50;;
7545;SDS011;3814;51.454;12.616;2022-08-20T12:43:14;35.53;;;20.48;;
7545;SDS011;3814;51.454;12.616;2022-08-20T12:45:39;38.03;;;20.80;;
7545;SDS011;3814;51.454;12.616;2022-08-20T12:48:06;36.80;;;21.08;;
7545;SDS011;3814;51.454;12.616;2022-08-20T12:50:33;39.30;;;20.23;;
7545;SDS011;3814;51.454;12.616;2022-08-20T12:53:00;34.88;;;20.55;;
7545;SDS011;3814;51.454;12.616;2022-08-20T12:55:26;35.83;;;20.38;;
7545;SDS011;3814;51.454;12.616;2022-08-20T12:57:53;34.83;;;19.80;;
7545;SDS011;3814;51.454;12.616;2022-08-20T13:00:23;34.35;;;19.20;;
7545;SDS011;3814;51.454;12.616;2022-08-20T13:03:09;30.75;;;17.67;;
7545;SDS011;3814;51.454;12.616;2022-08-20T13:05:36;32.28;;;19.20;;
7545;SDS011;3814;51.454;12.616;2022-08-20T13:08:05;30.80;;;18.42;;
7545;SDS011;3814;51.454;12.616;2022-08-20T13:10:35;30.90;;;18.52;;
7545;SDS011;3814;51.454;12.616;2022-08-20T13:13:07;34.10;;;19.55;;
7545;SDS011;3814;51.454;12.616;2022-08-20T13:15:33;33.92;;;19.10;;
7545;SDS011;3814;51.454;12.616;2022-08-20T13:17:59;33.42;;;19.13;;
7545;SDS011;3814;51.454;12.616;2022-08-20T13:20:26;31.83;;;18.60;;
7545;SDS011;3814;51.454;12.616;2022-08-20T13:22:52;33.75;;;19.40;;
7545;SDS011;3814;51.454;12.616;2022-08-20T13:25:18;33.67;;;18.85;;
7545;SDS011;3814;51.454;12.616;2022-08-20T13:27:44;31.80;;;18.13;;
7545;SDS011;3814;51.454;12.616;2022-08-20T13:30:11;33.45;;;20.30;;
7545;SDS011;3814;51.454;12.616;2022-08-20T13:32:39;33.97;;;19.90;;
7545;SDS011;3814;51.454;12.616;2022-08-20T13:35:04;34.83;;;20.10;;
7545;SDS011;3814;51.454;12.616;2022-08-20T13:37:30;37.35;;;21.02;;
7545;SDS011;3814;51.454;12.616;2022-08-20T13:39:57;36.53;;;19.85;;
7545;SDS011;3814;51.454;12.616;2022-08-20T13:42:23;34.85;;;19.85;;
7545;SDS011;3814;51.454;12.616;2022-08-20T13:44:51;33.17;;;19.17;;
7545;SDS011;3814;51.454;12.616;2022-08-20T13:47:18;34.50;;;19.88;;
7545;SDS011;3814;51.454;12.616;2022-08-20T13:49:45;34.33;;;18.73;;
7545;SDS011;3814;51.454;12.616;2022-08-20T13:52:11;30.50;;;18.13;;
7545;SDS011;3814;51.454;12.616;2022-08-20T13:54:36;36.25;;;19.50;;
7545;SDS011;3814;51.454;12.616;2022-08-20T13:57:06;37.83;;;21.70;;
7545;SDS011;3814;51.454;12.616;2022-08-20T13:59:36;39.75;;;22.70;;
7545;SDS011;3814;51.454;12.616;2022-08-20T14:02:03;38.83;;;20.85;;
7545;SDS011;3814;51.454;12.616;2022-08-20T14:04:29;38.97;;;22.48;;
7545;SDS011;3814;51.454;12.616;2022-08-20T14:06:54;41.17;;;23.38;;
7545;SDS011;3814;51.454;12.616;2022-08-20T14:09:19;41.55;;;22.10;;
7545;SDS011;3814;51.454;12.616;2022-08-20T14:11:45;40.00;;;22.23;;
7545;SDS011;3814;51.454;12.616;2022-08-20T14:14:10;39.63;;;21.88;;
7545;SDS011;3814;51.454;12.616;2022-08-20T14:16:35;43.35;;;22.38;;
7545;SDS011;3814;51.454;12.616;2022-08-20T14:19:01;38.22;;;22.02;;
7545;SDS011;3814;51.454;12.616;2022-08-20T14:21:27;43.30;;;23.25;;
7545;SDS011;3814;51.454;12.616;2022-08-20T14:23:52;42.65;;;21.45;;
7545;SDS011;3814;51.454;12.616;2022-08-20T14:26:18;43.05;;;23.27;;
7545;SDS011;3814;51.454;12.616;2022-08-20T14:28:43;42.95;;;23.75;;
7545;SDS011;3814;51.454;12.616;2022-08-20T14:31:08;47.53;;;25.08;;
7545;SDS011;3814;51.454;12.616;2022-08-20T14:33:34;43.72;;;23.40;;
7545;SDS011;3814;51.454;12.616;2022-08-20T14:35:59;44.30;;;23.13;;
7545;SDS011;3814;51.454;12.616;2022-08-20T14:38:24;38.10;;;22.00;;
7545;SDS011;3814;51.454;12.616;2022-08-20T14:40:50;46.20;;;23.75;;
7545;SDS011;3814;51.454;12.616;2022-08-20T14:43:15;37.60;;;21.05;;